• Join FlightAware (Why Join?)
  • Login
  • US Flag 
04:32AM EDT


 

Airport Tracker/Info


-or-


 

Live Flight TrackerFlight Track Log ✈ SWA2236 ✈ 17-Jul-2013 ✈ KOAK - KLAS

Flight Track Log - Related Links

Times and Time Zones

All times are in EDT time to prevent confusion due to time zone crossing. See the SWA2236 flight status page for this flight to view local times or setup timezone preferences in your user account.

Time Position Orientation Groundspeed Altitude Reporting Facility
EDT Latitude Longitude Course Direction KTS MPH feet Rate Location/Type
12:15PM 37.7667 -122.3333 107° East 238 274 4,400  Level Northern Cal TRACON
12:16PM 37.7333 -122.4167 243° Southwest 235 270 7,800 2,820 Climbing Northern Cal TRACON
12:17PM 37.6667 -122.4333 191° South 241 277 10,100 1,440 Climbing Northern Cal TRACON
12:18PM 37.6197 -122.4519 197° South 264 304 10,300 1,800 Climbing Oakland Center
12:19PM 37.5253 -122.4428 176° South 333 383 13,300 3,000 Climbing Oakland Center
12:20PM 37.2055 -122.0886 107° East  Level FlightAware Approximate
12:20PM 37.4714 -122.3497 126° Southeast 364 419 16,400  Level Oakland Center
12:21PM 37.4372 -122.1947 105° East 386 444 19,200 2,580 Climbing Oakland Center
12:22PM 37.4072 -122.0594 106° East 400 460 21,700 2,280 Climbing Oakland Center
12:23PM 37.3758 -121.9181 106° East 416 479 23,900 2,040 Climbing Oakland Center
12:24PM 37.3439 -121.7750 106° East 432 497 26,000 1,500 Climbing Oakland Center
12:25PM 37.3097 -121.6242 106° East 447 514 27,000 480 Climbing Oakland Center
12:26PM 37.2758 -121.4733 106° East 449 517 27,000 660 Level Oakland Center
12:27PM 37.2419 -121.3242 106° East 447 514 28,400 1,980 Climbing Oakland Center
12:28PM 37.2014 -121.1458 106° East 444 511 31,100 2,160 Climbing Oakland Center
12:29PM 37.1664 -120.9953 106° East 447 514 32,900 900 Climbing Oakland Center
12:30PM 37.1322 -120.8475 106° East 445 512 33,000  Climbing Oakland Center
12:31PM 37.0969 -120.7011 107° East 440 506 33,000  Level Oakland Center
12:32PM 37.0628 -120.5567 106° East 436 502 33,000  Level Oakland Center
12:33PM 37.0289 -120.4108 106° East 435 501 33,000  Level Oakland Center
12:34PM 36.9947 -120.2658 106° East 435 501 33,000  Level Oakland Center
12:35PM 36.9531 -120.1000 107° East 436 502 33,000  Level Oakland Center
12:36PM 36.9181 -119.9550 107° East 436 502 33,000  Level Oakland Center
12:37PM 36.8931 -119.8061 102° East 437 503 33,000  Level Oakland Center
12:38PM 36.9403 -119.6533 69° East 468 539 33,000  Level Oakland Center
12:39PM 36.9922 -119.5039 66° East 469 540 33,000  Level Oakland Center
12:40PM 37.0442 -119.3519 67° East 473 544 33,000  Level Oakland Center
12:41PM 37.0956 -119.1997 67° East 474 545 33,000  Level Oakland Center
12:42PM 37.1475 -119.0467 67° East 477 549 33,000  Level Oakland Center
12:43PM 37.2092 -118.8633 67° East 476 548 33,000  Level Oakland Center
12:44PM 37.2625 -118.7117 66° East 476 548 33,000  Level Oakland Center
12:45PM 37.3136 -118.5589 67° East 475 547 33,000  Level Oakland Center
12:46PM 37.3639 -118.4086 67° East 474 545 33,000  Level Oakland Center
12:47PM 37.3833 -118.2492 81° East 464 534 33,000  Level Oakland Center
12:48PM 37.3908 -118.0889 87° East 461 531 33,000  Level Oakland Center
12:50PM 37.3997 -117.9283 86° East 461 531 33,000  Level Oakland Center
12:51PM 37.4097 -117.7361 86° East 460 529 33,000  Level Oakland Center
12:52PM 37.4164 -117.5767 87° East 459 528 33,000  Level Oakland Center
12:53PM 37.4242 -117.4169 86° East 459 528 33,000  Level Oakland Center
12:54PM 37.4036 -117.2686 100° East 439 505 33,000  Level Oakland Center
12:55PM 37.3122 -117.1786 142° Southeast 419 482 33,000  Level Oakland Center
12:56PM 37.2167 -117.0997 147° Southeast 413 475 33,000  Level Oakland Center
12:57PM 37.1197 -117.0175 146° Southeast 420 483 33,000  Level Oakland Center
12:58PM 37.0236 -116.9347 145° Southeast 418 481 33,000  Level Oakland Center
12:59PM 36.9086 -116.8386 146° Southeast 417 480 33,000 -60 Level Oakland Center
01:00PM 36.8119 -116.7567 146° Southeast 418 481 32,900 -1,320 Descending Oakland Center
01:01PM 36.7314 -116.6506 133° Southeast 419 482 30,300 -2,460 Descending Oakland Center
01:02PM 36.6536 -116.5406 131° Southeast 424 488 27,900 -2,220 Descending Oakland Center
01:03PM 36.5786 -116.4322 131° Southeast 418 481 25,800 -2,100 Descending Oakland Center
01:04PM 36.4731 -116.2808 131° Southeast 391 450 22,800 -2,040 Descending Los Angeles Center
01:05PM 36.4036 -116.1806 131° Southeast 383 441 20,800 -1,980 Descending Los Angeles Center
01:06PM 36.3528 -116.1139 133° Southeast 373 429 19,500 -1,920 Descending Los Angeles Center
01:07PM 36.2650 -115.9892 131° Southeast 356 410 16,900 -1,440 Descending Los Angeles Center
01:08PM 36.2003 -115.8936 130° Southeast 340 391 16,000 -960 Descending Los Angeles Center
01:09PM 36.1656 -115.7900 113° Southeast 325 374 15,000 -1,080 Descending Los Angeles Center
01:10PM 36.1308 -115.6828 112° Southeast 312 359 13,800 -1,020 Descending Los Angeles Center
01:11PM 36.0983 -115.5858 113° Southeast 307 353 13,000 -780 Descending Los Angeles Center
01:13PM 36.0667 -115.4850 111° Southeast 301 346 12,300 -960 Descending Los Angeles Center
01:14PM 36.0364 -115.3911 112° Southeast 298 343 11,100 -1,020 Descending Los Angeles Center
01:15PM 36.0242 -115.2969 99° East 273 314 10,300 -1,080 Descending Los Angeles Center
01:16PM 36.0178 -115.1981 95° East 269 310 9,000 -780 Descending Los Angeles Center
01:17PM 36.0133 -115.1200 94° East 261 300 8,700 -600 Descending Los Angeles Center
01:18PM 36.0072 -115.0286 95° East 233 268 7,800 -960 Descending Los Angeles Center
01:19PM 36.0042 -114.9767 94° East 202 232 7,000 -1,380 Descending Los Angeles Center
01:20PM 36.0469 -114.9650 12° North 209 241 5,300 -1,560 Descending Los Angeles Center
01:21PM 36.0736 -115.0281 298° West 197 227 3,700 -1,320 Descending Los Angeles Center
01:22PM 36.0739 -115.0892 270° West 175 201 2,600 -780 Descending Los Angeles Center
01:23PM 36.0739 -115.1422 270° West 172 198 2,000 -540 Descending Los Angeles Center
01:25PM 36.0667 -115.1500 270° West  Level FlightAware Approximate